aviador You're here:

FMCZ Decoded Metar

DZAOUDZI in MAYOTTE ISLAND
Report Time2018-01-21 06:30:00
UTC Time2018-01-21 06:51:25
Flight Rules vfr VFR
Wind310° at 13 kt
W.Decomp.*RWY 34: 12.1 kt HW 4.9 kt LCW
W.Rank310° ranks 24
Current wind is above 310° avg. (6.3)
Visibility9999 m
Phenomena:N/A
Clouds:Scattered TCU 023 Hf
Broken 130 Hf
Expected CloudBase > 2,000 ft AGL from Temp-Dew spread
Ceiling13,000 ft
Temp29°C (ISA +14)
Dew Point24°C (74% RH)
Heat Index33.5°C
QNH1011 hPa
Density Alt2,093 ft
Elevation23 ft
Report Wrong Elevation
Raw Report
METAR FMCZ 210630Z 31013KT 9999 SCT023TCU BKN130 29/24 Q1011 NOSIG=####018000078####
SAIN90 VOCI 210630

Extra information for FMCZ:More info

Metar Taf Metar & Taf Last 4 Metars F.Rules Stats Wind Profile Meteogram Temp Stats Airport Information Weather charts Add Link Nearby VenuesMetar ALERT Operation Metar Decoded Social comments